Time;durP1;ratioP1;P1;durP2;ratioP2;P2;SDS_P1;SDS_P2;PMS_P1;PMS_P2;Temp;Humidity;BMP_temperature;BMP_pressure;BME280_temperature;BME280_humidity;BME280_pressure;Samples;Min_cycle;Max_cycle;Signal;HPM_P1;HPM_P2
2022/03/21 00:00:56;;;;;;;31.35;22.85;;;7.70;99.90;;;;;;5111046;28;20393;-79
2022/03/21 00:03:24;;;;;;;31.38;21.63;;;7.70;99.90;;;;;;5112692;28;20040;-79
2022/03/21 00:05:51;;;;;;;32.13;22.80;;;7.70;99.90;;;;;;5112319;28;20059;-79
2022/03/21 00:08:18;;;;;;;31.42;22.38;;;7.70;99.90;;;;;;5112204;28;20065;-79
2022/03/21 00:10:45;;;;;;;33.47;23.52;;;7.60;99.90;;;;;;5112331;28;20067;-80
2022/03/21 00:13:15;;;;;;;31.65;22.73;;;7.70;99.90;;;;;;5112209;28;20032;-79
2022/03/21 00:15:42;;;;;;;32.15;22.85;;;7.60;99.90;;;;;;5112414;28;20039;-79
2022/03/21 00:18:08;;;;;;;29.73;21.13;;;7.60;99.90;;;;;;5112122;28;20058;-80
2022/03/21 00:20:34;;;;;;;28.40;21.52;;;7.70;99.90;;;;;;5112261;28;20047;-79
2022/03/21 00:23:00;;;;;;;30.45;22.25;;;7.60;99.90;;;;;;5093243;28;20047;-79
2022/03/21 00:25:26;;;;;;;30.85;21.77;;;7.60;99.90;;;;;;5093770;28;20489;-80
2022/03/21 00:27:52;;;;;;;28.88;21.33;;;7.60;99.90;;;;;;5112099;28;20047;-79
2022/03/21 00:30:17;;;;;;;27.83;20.42;;;7.60;99.90;;;;;;5093934;28;20398;-79
2022/03/21 00:32:44;;;;;;;28.38;20.27;;;7.60;99.90;;;;;;5093928;28;20071;-80
2022/03/21 00:35:15;;;;;;;31.15;21.83;;;7.70;99.90;;;;;;5093773;28;20426;-80
2022/03/21 00:37:41;;;;;;;30.65;20.48;;;7.70;99.90;;;;;;5111853;28;20040;-80
2022/03/21 00:40:09;;;;;;;27.45;19.38;;;7.60;99.90;;;;;;5111644;28;20126;-80
2022/03/21 00:42:37;;;;;;;30.83;21.80;;;7.70;99.90;;;;;;5076503;28;20100;-79
2022/03/21 00:45:05;;;;;;;27.52;19.50;;;7.70;99.90;;;;;;5111213;28;20039;-80
2022/03/21 00:47:32;;;;;;;28.80;19.83;;;7.70;99.90;;;;;;5093373;28;20044;-80
2022/03/21 00:49:58;;;;;;;27.73;20.20;;;7.70;99.90;;;;;;5093166;28;20043;-79
2022/03/21 00:52:24;;;;;;;27.40;20.80;;;7.70;99.90;;;;;;5111745;28;20043;-80
2022/03/21 00:54:50;;;;;;;28.83;20.73;;;7.70;99.90;;;;;;5111696;28;20603;-79
2022/03/21 00:57:15;;;;;;;30.38;20.27;;;7.70;99.90;;;;;;5111285;28;20126;-79
2022/03/21 00:59:41;;;;;;;27.20;20.90;;;7.60;99.90;;;;;;5111278;28;20410;-80
2022/03/21 01:02:08;;;;;;;31.90;20.85;;;7.70;99.90;;;;;;5111196;28;20482;-80
2022/03/21 01:04:35;;;;;;;28.92;21.05;;;7.70;99.90;;;;;;5093036;28;20048;-80
2022/03/21 01:07:02;;;;;;;31.95;21.80;;;7.70;99.90;;;;;;5110901;28;20043;-80
2022/03/21 01:09:27;;;;;;;30.48;22.52;;;7.60;99.90;;;;;;5091787;28;20043;-79
2022/03/21 01:11:53;;;;;;;34.10;23.05;;;7.60;99.90;;;;;;5091430;28;20093;-80
2022/03/21 01:14:19;;;;;;;33.03;23.08;;;7.60;99.90;;;;;;5110429;28;20036;-80
2022/03/21 01:16:44;;;;;;;32.55;22.95;;;7.70;99.90;;;;;;5075216;28;20436;-80
2022/03/21 01:19:10;;;;;;;30.73;21.33;;;7.70;99.90;;;;;;5110057;28;20146;-80
2022/03/21 01:21:36;;;;;;;35.33;23.58;;;7.70;99.90;;;;;;5110066;28;20047;-79
2022/03/21 01:24:01;;;;;;;33.90;23.63;;;7.60;99.90;;;;;;5091415;28;20052;-79
2022/03/21 01:26:27;;;;;;;31.50;22.38;;;7.70;99.90;;;;;;5109988;28;20043;-79
2022/03/21 01:28:53;;;;;;;33.80;23.20;;;7.60;99.90;;;;;;5108899;28;20130;-80
2022/03/21 01:31:18;;;;;;;30.05;22.60;;;7.70;99.90;;;;;;5109970;28;20047;-80
2022/03/21 01:33:44;;;;;;;33.50;22.23;;;7.60;99.90;;;;;;5091633;28;20375;-79
2022/03/21 01:36:09;;;;;;;33.03;22.65;;;7.70;99.90;;;;;;5091761;28;20046;-80
2022/03/21 01:38:35;;;;;;;31.50;22.13;;;7.70;99.90;;;;;;5109495;28;20036;-79
2022/03/21 01:41:01;;;;;;;32.72;23.50;;;7.70;99.90;;;;;;5090885;28;20463;-79
2022/03/21 01:43:27;;;;;;;31.17;22.70;;;7.70;99.90;;;;;;5109746;28;20135;-80
2022/03/21 01:45:52;;;;;;;30.63;21.90;;;7.70;99.90;;;;;;5091877;28;20058;-80
2022/03/21 01:48:18;;;;;;;28.98;20.98;;;7.60;99.90;;;;;;5109417;28;20040;-80
2022/03/21 01:50:44;;;;;;;34.80;22.38;;;7.70;99.90;;;;;;5092349;28;20268;-80
2022/03/21 01:55:59;;;;;;;30.95;21.88;;;7.70;99.90;;;;;;5092378;28;20067;-80
2022/03/21 01:58:25;;;;;;;31.80;22.88;;;7.70;99.90;;;;;;5110430;28;20051;-80
2022/03/21 02:00:51;;;;;;;31.52;21.60;;;7.70;99.90;;;;;;5091119;28;20610;-79
2022/03/21 02:03:21;;;;;;;31.60;22.67;;;7.70;99.90;;;;;;5109726;28;20127;-80
2022/03/21 02:05:47;;;;;;;31.98;23.50;;;7.70;99.90;;;;;;5091884;28;20096;-80
2022/03/21 02:08:14;;;;;;;33.38;23.48;;;7.70;99.90;;;;;;5109970;28;20515;-79
2022/03/21 02:10:43;;;;;;;32.53;23.13;;;7.70;99.90;;;;;;5108822;28;20158;-80
2022/03/21 02:13:13;;;;;;;32.88;24.58;;;7.70;99.90;;;;;;5109568;28;20126;-80
2022/03/21 02:15:39;;;;;;;36.40;25.95;;;7.70;99.90;;;;;;5092113;28;20405;-81
2022/03/21 02:18:06;;;;;;;36.10;27.40;;;7.70;99.90;;;;;;5108484;28;20054;-79
2022/03/21 02:20:35;;;;;;;36.60;25.35;;;7.70;99.90;;;;;;5108412;28;20051;-80
2022/03/21 02:23:19;;;;;;;37.15;26.63;;;7.70;99.90;;;;;;5091418;28;20047;-80
2022/03/21 02:25:45;;;;;;;36.43;25.10;;;7.70;99.90;;;;;;5108671;28;20044;-80
2022/03/21 02:28:14;;;;;;;37.10;26.00;;;7.70;99.90;;;;;;5108596;28;20142;-80
2022/03/21 02:30:43;;;;;;;34.35;26.15;;;7.60;99.90;;;;;;5108757;28;20073;-80
2022/03/21 02:33:10;;;;;;;37.70;26.58;;;7.60;99.90;;;;;;5108489;28;20094;-79
2022/03/21 02:35:38;;;;;;;39.00;27.75;;;7.60;99.90;;;;;;5108785;28;20486;-80
2022/03/21 02:38:05;;;;;;;39.15;28.23;;;7.60;99.90;;;;;;5109361;28;20498;-80
2022/03/21 02:40:31;;;;;;;41.00;28.70;;;7.60;99.90;;;;;;5107964;28;20160;-80
2022/03/21 02:42:56;;;;;;;40.67;29.33;;;7.50;99.90;;;;;;5100165;28;20056;-80
2022/03/21 02:45:22;;;;;;;38.90;28.15;;;7.50;99.90;;;;;;5109138;27;20043;-80
2022/03/21 02:47:48;;;;;;;40.35;27.65;;;7.50;99.90;;;;;;5110841;27;20035;-80
2022/03/21 02:50:18;;;;;;;38.80;28.92;;;7.50;99.90;;;;;;5110531;28;20043;-80
2022/03/21 02:52:46;;;;;;;41.42;29.23;;;7.40;99.90;;;;;;5110456;28;20565;-80
2022/03/21 02:55:12;;;;;;;35.50;25.58;;;7.40;99.90;;;;;;5110934;28;20138;-80
2022/03/21 02:57:37;;;;;;;41.95;26.83;;;7.30;99.90;;;;;;5128999;28;20130;-79
2022/03/21 03:00:04;;;;;;;38.63;25.50;;;7.30;99.90;;;;;;5125475;28;20067;-80
2022/03/21 03:02:30;;;;;;;38.55;27.02;;;7.30;99.90;;;;;;5073632;28;20040;-80
2022/03/21 03:04:55;;;;;;;36.78;25.08;;;7.30;99.90;;;;;;5089648;28;20595;-80
2022/03/21 03:07:21;;;;;;;35.15;26.00;;;7.20;99.90;;;;;;5090043;28;20043;-81
2022/03/21 03:09:46;;;;;;;36.58;25.55;;;7.20;99.90;;;;;;5090225;28;20409;-79
2022/03/21 03:12:12;;;;;;;31.75;22.58;;;7.10;99.90;;;;;;5090810;28;20051;-80
2022/03/21 03:14:38;;;;;;;35.30;24.75;;;7.10;99.90;;;;;;5094109;28;20043;-80
2022/03/21 03:17:04;;;;;;;37.67;23.73;;;7.00;99.90;;;;;;5093997;28;20075;-80
2022/03/21 03:19:29;;;;;;;34.70;23.92;;;7.00;99.90;;;;;;5077434;28;20039;-80
2022/03/21 03:21:56;;;;;;;36.95;24.33;;;6.90;99.90;;;;;;5094065;28;20139;-80
2022/03/21 03:24:25;;;;;;;36.22;23.95;;;6.80;99.90;;;;;;5094442;28;20493;-80
2022/03/21 03:26:50;;;;;;;35.08;24.75;;;6.80;99.90;;;;;;5094193;28;20545;-80
2022/03/21 03:29:16;;;;;;;32.70;24.23;;;6.80;99.90;;;;;;5093927;28;20131;-80
2022/03/21 03:31:42;;;;;;;33.25;22.98;;;6.70;99.90;;;;;;5094342;28;20142;-80
2022/03/21 03:34:08;;;;;;;34.03;23.15;;;6.70;99.90;;;;;;5111968;28;20516;-80
2022/03/21 03:36:34;;;;;;;30.58;21.83;;;6.70;99.90;;;;;;5094151;28;20067;-80
2022/03/21 03:38:59;;;;;;;31.52;22.00;;;6.60;99.90;;;;;;5093172;28;20056;-80
2022/03/21 03:41:27;;;;;;;35.72;22.65;;;6.60;99.90;;;;;;5093946;28;20429;-79
2022/03/21 03:43:53;;;;;;;33.53;22.60;;;6.50;99.90;;;;;;5111910;28;20058;-79
2022/03/21 03:46:19;;;;;;;32.00;21.55;;;6.40;99.90;;;;;;5094209;28;20051;-79
2022/03/21 03:48:45;;;;;;;31.05;21.10;;;6.40;99.90;;;;;;5093165;28;20071;-79
2022/03/21 03:51:12;;;;;;;31.75;21.65;;;6.40;99.90;;;;;;5093744;28;20059;-80
2022/03/21 03:53:38;;;;;;;34.30;21.67;;;6.40;99.90;;;;;;5093038;28;20058;-79
2022/03/21 03:56:06;;;;;;;32.08;22.30;;;6.30;99.90;;;;;;5092838;28;20051;-80
2022/03/21 03:58:35;;;;;;;33.75;22.08;;;6.30;99.90;;;;;;5111590;28;20058;-79
2022/03/21 04:01:04;;;;;;;;;;;6.30;99.90;;;;;;5111744;28;20421;-79
2022/03/21 04:03:45;;;;;;;31.75;21.17;;;6.20;99.90;;;;;;5093199;28;19947;-79
2022/03/21 04:06:22;;;;;;;33.97;23.23;;;6.20;99.90;;;;;;5092891;28;20054;-78
2022/03/21 04:08:49;;;;;;;33.17;22.25;;;6.10;99.90;;;;;;5111171;28;20051;-79
2022/03/21 04:11:16;;;;;;;32.65;21.50;;;6.00;99.90;;;;;;5092285;28;20513;-79
2022/03/21 04:13:43;;;;;;;36.33;21.95;;;6.00;99.90;;;;;;5092572;28;20039;-79
2022/03/21 04:16:09;;;;;;;33.55;22.92;;;5.90;99.90;;;;;;5075955;28;20058;-81
2022/03/21 04:18:36;;;;;;;35.63;22.85;;;5.90;99.90;;;;;;5092759;28;20149;-80
2022/03/21 04:21:03;;;;;;;35.95;23.75;;;5.90;99.90;;;;;;5110590;28;20052;-79
2022/03/21 04:23:29;;;;;;;33.58;22.88;;;5.80;99.90;;;;;;5092140;28;20047;-80
2022/03/21 04:25:54;;;;;;;;;;;5.70;99.90;;;;;;5110556;28;20512;-79
2022/03/21 04:28:20;;;;;;;33.20;22.05;;;5.60;99.90;;;;;;5111328;28;20019;-80
2022/03/21 04:30:46;;;;;;;38.10;22.80;;;5.60;99.90;;;;;;5075943;28;20111;-79
2022/03/21 04:33:14;;;;;;;34.25;24.10;;;5.60;99.90;;;;;;5092408;28;20082;-79
2022/03/21 04:35:41;;;;;;;37.45;24.80;;;5.50;99.90;;;;;;5092952;28;20088;-80
2022/03/21 04:38:13;;;;;;;34.17;23.42;;;5.40;99.90;;;;;;5093044;28;20533;-80
2022/03/21 04:40:44;;;;;;;32.80;24.02;;;5.40;99.90;;;;;;5110344;28;20061;-80
2022/03/21 04:43:10;;;;;;;34.60;24.02;;;5.30;99.90;;;;;;5092700;28;20406;-80
2022/03/21 04:45:37;;;;;;;34.10;22.67;;;5.30;99.90;;;;;;5110530;28;20043;-80
2022/03/21 04:48:04;;;;;;;41.60;23.20;;;5.20;99.90;;;;;;5110467;28;20043;-80
2022/03/21 04:50:30;;;;;;;;;;;5.20;99.90;;;;;;5111334;28;20413;-79
2022/03/21 04:52:55;;;;;;;;;;;5.10;99.90;;;;;;5111158;28;19968;-80
2022/03/21 04:55:21;;;;;;;31.30;21.85;;;5.00;99.90;;;;;;5110757;28;20270;-79
2022/03/21 04:57:47;;;;;;;35.33;23.30;;;4.90;99.90;;;;;;5092311;28;20043;-79
2022/03/21 05:00:13;;;;;;;32.45;22.15;;;4.90;99.90;;;;;;5110103;28;20055;-79
2022/03/21 05:02:39;;;;;;;38.50;22.75;;;4.90;99.90;;;;;;5092084;28;20051;-80
2022/03/21 05:05:05;;;;;;;34.72;22.25;;;4.80;99.90;;;;;;5092582;28;20123;-79
2022/03/21 05:07:31;;;;;;;36.72;22.48;;;4.80;99.90;;;;;;5109880;28;20114;-79
2022/03/21 05:09:57;;;;;;;34.80;24.10;;;4.70;99.90;;;;;;5110102;28;20063;-79
2022/03/21 05:12:23;;;;;;;35.42;24.13;;;4.70;99.90;;;;;;5092179;28;20557;-79
2022/03/21 05:14:49;;;;;;;34.00;22.67;;;4.60;99.90;;;;;;5091684;28;20048;-79
2022/03/21 05:17:17;;;;;;;38.40;24.23;;;4.60;99.90;;;;;;5109802;28;20039;-79
2022/03/21 05:19:44;;;;;;;44.08;32.20;;;4.60;99.90;;;;;;5090429;28;20419;-80
2022/03/21 05:22:10;;;;;;;39.42;26.08;;;4.50;99.90;;;;;;5109618;28;20156;-80
2022/03/21 05:35:52;;;;;;;37.63;23.58;;;4.50;99.90;;;;;;5109358;28;20057;-79
2022/03/21 05:35:54;;;;;;;36.08;23.67;;;4.50;99.90;;;;;;5109272;28;20057;-79
2022/03/21 05:38:22;;;;;;;36.03;23.15;;;4.40;99.90;;;;;;5109546;28;20048;-79
2022/03/21 05:40:48;;;;;;;35.72;23.23;;;4.40;99.90;;;;;;5091233;28;20062;-79
2022/03/21 05:43:14;;;;;;;33.53;22.92;;;4.40;99.90;;;;;;5109445;28;20054;-79
2022/03/21 05:45:41;;;;;;;33.10;22.50;;;4.40;99.90;;;;;;5074563;28;20044;-80
2022/03/21 05:50:51;;;;;;;36.25;23.13;;;4.20;99.90;;;;;;5109148;28;20047;-79
2022/03/21 05:53:18;;;;;;;41.08;26.13;;;4.20;99.90;;;;;;5111235;27;20062;-79
2022/03/21 05:55:45;;;;;;;40.85;25.45;;;4.20;99.90;;;;;;5112021;27;20524;-79
2022/03/21 05:58:11;;;;;;;45.95;26.17;;;4.10;99.90;;;;;;5131004;27;20512;-79
2022/03/21 06:00:37;;;;;;;39.97;25.58;;;4.10;99.90;;;;;;5130829;27;20091;-80
2022/03/21 06:03:04;;;;;;;44.75;27.33;;;4.10;99.90;;;;;;5130092;27;20134;-79
2022/03/21 06:05:30;;;;;;;45.40;26.17;;;4.10;99.90;;;;;;5130894;27;20050;-80
2022/03/21 06:07:56;;;;;;;41.17;25.15;;;4.10;99.90;;;;;;5129875;27;20477;-81
2022/03/21 06:10:21;;;;;;;47.42;25.13;;;4.10;99.90;;;;;;5130677;27;20540;-81
2022/03/21 06:12:48;;;;;;;45.20;24.58;;;4.10;99.90;;;;;;5129893;27;20036;-81
2022/03/21 06:15:14;;;;;;;43.15;25.63;;;4.10;99.90;;;;;;5112418;27;20053;-80
2022/03/21 06:17:41;;;;;;;39.88;25.88;;;4.10;99.90;;;;;;5130584;27;20035;-80
2022/03/21 06:20:12;;;;;;;51.42;31.63;;;4.10;99.90;;;;;;5111829;27;20455;-80
2022/03/21 06:22:38;;;;;;;46.08;28.40;;;4.20;99.90;;;;;;5130318;27;20043;-81
2022/03/21 06:25:05;;;;;;;43.85;25.88;;;4.20;99.90;;;;;;5130131;27;20047;-81
2022/03/21 06:27:32;;;;;;;39.20;26.00;;;4.20;99.90;;;;;;5130362;27;20062;-80
2022/03/21 06:29:58;;;;;;;46.58;28.13;;;4.30;99.90;;;;;;5130108;27;20512;-80
2022/03/21 06:32:24;;;;;;;45.75;28.40;;;4.30;99.90;;;;;;5129953;27;20302;-80
2022/03/21 06:34:51;;;;;;;45.72;28.35;;;4.40;99.90;;;;;;5111981;27;20129;-80
2022/03/21 06:37:17;;;;;;;47.83;29.40;;;4.50;99.90;;;;;;5095107;27;20050;-80
2022/03/21 06:39:42;;;;;;;41.85;27.10;;;4.60;99.90;;;;;;5111556;27;20051;-81
2022/03/21 06:42:09;;;;;;;39.80;25.15;;;4.60;99.90;;;;;;5129888;27;20123;-80
2022/03/21 06:44:34;;;;;;;42.72;25.27;;;4.70;99.90;;;;;;5130090;27;20130;-81
2022/03/21 06:47:00;;;;;;;39.08;24.40;;;4.80;99.90;;;;;;5129379;27;20122;-80
2022/03/21 06:49:29;;;;;;;38.42;24.05;;;4.90;99.90;;;;;;5111717;27;20039;-79
2022/03/21 06:52:02;;;;;;;40.53;24.40;;;5.00;99.90;;;;;;5106981;27;20035;-79
2022/03/21 06:54:29;;;;;;;42.50;24.80;;;5.20;99.90;;;;;;5108860;28;20096;-79
2022/03/21 06:56:55;;;;;;;36.03;25.00;;;5.30;99.90;;;;;;5110306;28;20552;-79
2022/03/21 06:59:22;;;;;;;44.35;25.60;;;5.30;99.90;;;;;;5091107;28;20078;-80
2022/03/21 07:01:47;;;;;;;43.38;32.47;;;5.40;99.90;;;;;;5089739;28;20431;-79
2022/03/21 07:04:13;;;;;;;43.10;32.90;;;5.50;99.90;;;;;;5108270;28;20872;-79
2022/03/21 07:06:38;;;;;;;42.03;32.27;;;5.50;99.90;;;;;;5107574;28;20392;-79
2022/03/21 07:09:04;;;;;;;44.85;27.58;;;5.60;99.90;;;;;;5109372;28;20086;-79
2022/03/21 07:11:31;;;;;;;38.15;26.58;;;5.60;99.90;;;;;;5090297;28;20031;-79
2022/03/21 07:13:57;;;;;;;41.72;26.48;;;5.70;99.90;;;;;;5108485;28;20497;-79
2022/03/21 07:16:23;;;;;;;42.38;26.80;;;5.80;99.90;;;;;;5108645;28;20047;-79
2022/03/21 07:18:49;;;;;;;36.58;26.67;;;5.90;99.90;;;;;;5109572;28;20051;-79
2022/03/21 07:21:16;;;;;;;37.60;26.45;;;5.90;99.90;;;;;;5109279;28;20051;-79
2022/03/21 07:23:42;;;;;;;38.90;25.88;;;6.00;99.90;;;;;;5091259;28;20058;-80
2022/03/21 07:26:08;;;;;;;36.67;25.73;;;6.10;99.90;;;;;;5109121;28;20044;-80
2022/03/21 07:28:35;;;;;;;44.72;27.70;;;6.20;99.90;;;;;;5108510;28;20044;-80
2022/03/21 07:31:00;;;;;;;40.22;26.13;;;6.20;99.90;;;;;;5108811;28;20042;-80
2022/03/21 07:33:26;;;;;;;38.03;26.40;;;6.30;99.90;;;;;;5108819;28;20127;-80
2022/03/21 07:35:52;;;;;;;42.20;27.27;;;6.40;99.90;;;;;;5090896;28;20050;-80
2022/03/21 07:38:22;;;;;;;40.45;27.45;;;6.40;99.90;;;;;;5109084;28;20051;-80
2022/03/21 07:40:48;;;;;;;43.58;27.92;;;6.40;99.90;;;;;;5090243;28;20501;-80
2022/03/21 07:43:15;;;;;;;37.55;26.83;;;6.50;99.90;;;;;;5109375;28;20090;-80
2022/03/21 07:48:27;;;;;;;43.20;28.70;;;6.60;99.90;;;;;;5108959;28;20051;-80
2022/03/21 07:50:54;;;;;;;43.22;34.58;;;6.70;99.90;;;;;;5107190;28;20400;-79
2022/03/21 07:53:20;;;;;;;38.67;32.00;;;6.80;99.90;;;;;;5107507;28;20884;-80
2022/03/21 07:55:46;;;;;;;39.58;31.77;;;6.80;99.90;;;;;;5089684;28;20401;-80
2022/03/21 07:58:12;;;;;;;37.17;30.20;;;6.90;99.90;;;;;;5107435;28;20397;-80
2022/03/21 08:00:38;;;;;;;34.88;29.48;;;6.90;99.90;;;;;;5109945;28;20492;-80
2022/03/21 08:03:03;;;;;;;39.10;30.40;;;7.00;99.90;;;;;;5092204;28;20937;-80
2022/03/21 08:05:29;;;;;;;36.47;31.03;;;7.10;99.90;;;;;;5093269;28;20789;-80
2022/03/21 08:07:55;;;;;;;35.80;30.80;;;7.20;99.90;;;;;;5110705;28;20404;-80
2022/03/21 08:10:22;;;;;;;33.90;28.87;;;7.20;99.90;;;;;;5111134;28;20397;-80
2022/03/21 08:12:47;;;;;;;35.00;29.20;;;7.30;99.90;;;;;;5111041;28;20406;-79
2022/03/21 08:15:14;;;;;;;35.38;28.92;;;7.30;99.90;;;;;;5111197;28;20400;-80
2022/03/21 08:18:06;;;;;;;35.22;25.15;;;7.50;99.90;;;;;;5093754;28;20040;-80
2022/03/21 08:20:35;;;;;;;33.72;22.92;;;7.50;99.90;;;;;;5108482;28;20052;-79
2022/03/21 08:23:02;;;;;;;30.63;23.05;;;7.50;99.90;;;;;;5112092;28;20093;-79
2022/03/21 08:25:29;;;;;;;37.13;25.48;;;7.60;99.90;;;;;;5093629;28;20094;-79
2022/03/21 08:27:55;;;;;;;37.20;24.13;;;7.60;99.90;;;;;;5112268;28;20060;-79
2022/03/21 08:30:20;;;;;;;35.17;22.65;;;7.70;99.90;;;;;;5093925;28;20051;-80
2022/03/21 08:32:47;;;;;;;34.08;22.35;;;7.80;99.90;;;;;;5093323;28;20082;-79
2022/03/21 08:35:13;;;;;;;27.48;21.40;;;7.80;99.90;;;;;;5093528;28;20047;-79
2022/03/21 08:37:39;;;;;;;29.48;22.05;;;7.80;99.90;;;;;;5111283;28;20047;-79
2022/03/21 08:40:07;;;;;;;32.40;23.60;;;7.90;99.90;;;;;;5091984;28;20043;-79
2022/03/21 08:42:33;;;;;;;29.42;22.13;;;8.00;99.90;;;;;;5092795;28;20058;-79
2022/03/21 08:44:58;;;;;;;35.47;22.23;;;8.10;99.90;;;;;;5110831;28;20688;-80
2022/03/21 08:47:25;;;;;;;30.02;21.50;;;8.20;99.90;;;;;;5092923;28;20050;-79
2022/03/21 08:49:51;;;;;;;31.58;22.50;;;8.20;99.90;;;;;;5110539;28;20446;-79
2022/03/21 08:52:17;;;;;;;31.25;21.63;;;8.30;99.90;;;;;;5110059;28;20127;-80
2022/03/21 08:54:43;;;;;;;26.92;20.95;;;8.50;99.90;;;;;;5092406;28;20448;-79
2022/03/21 08:57:10;;;;;;;35.47;21.67;;;8.50;99.90;;;;;;5110663;28;20047;-79
2022/03/21 08:59:36;;;;;;;30.42;20.35;;;8.60;99.90;;;;;;5111604;28;20043;-80
2022/03/21 09:02:03;;;;;;;30.08;19.45;;;8.70;99.90;;;;;;5110950;28;20052;-80
2022/03/21 09:04:29;;;;;;;27.02;21.00;;;8.70;99.90;;;;;;5111393;28;20043;-79
2022/03/21 09:06:55;;;;;;;33.88;23.08;;;8.80;99.90;;;;;;5111429;28;20088;-79
2022/03/21 09:09:21;;;;;;;;;;;8.90;99.90;;;;;;5111921;28;20395;-79
2022/03/21 09:11:47;;;;;;;33.13;20.80;;;9.00;99.90;;;;;;5110871;28;19956;-80
2022/03/21 09:14:13;;;;;;;29.63;20.27;;;9.10;99.90;;;;;;5111215;28;20048;-79
2022/03/21 09:16:39;;;;;;;27.35;19.00;;;9.30;99.90;;;;;;5093034;28;20409;-79
2022/03/21 09:19:06;;;;;;;28.27;21.90;;;9.40;99.90;;;;;;5109692;28;20392;-80
2022/03/21 09:21:31;;;;;;;27.13;22.35;;;9.50;99.90;;;;;;5075113;28;20828;-80
2022/03/21 09:23:57;;;;;;;28.73;22.60;;;9.70;99.90;;;;;;5091355;28;20392;-78
2022/03/21 09:26:23;;;;;;;27.52;21.42;;;10.40;99.90;;;;;;5090948;28;20499;-78
2022/03/21 09:28:49;;;;;;;24.17;20.80;;;11.40;99.90;;;;;;5091400;28;20832;-78
2022/03/21 09:31:15;;;;;;;24.13;20.40;;;12.40;99.90;;;;;;5091923;28;20469;-78
2022/03/21 09:33:42;;;;;;;22.27;19.73;;;13.20;99.90;;;;;;5091272;28;20415;-79
2022/03/21 09:36:09;;;;;;;22.27;19.48;;;14.00;99.90;;;;;;5108979;28;20400;-78
2022/03/21 09:38:37;;;;;;;23.25;19.40;;;14.70;99.90;;;;;;5091382;28;21002;-79
2022/03/21 09:41:04;;;;;;;24.38;20.80;;;15.30;99.90;;;;;;5090862;28;20439;-78
2022/03/21 09:43:30;;;;;;;23.80;19.88;;;15.80;99.90;;;;;;5091337;28;20439;-79
2022/03/21 09:45:58;;;;;;;23.38;20.10;;;16.20;98.60;;;;;;5090804;28;20766;-79
2022/03/21 09:48:26;;;;;;;23.98;19.98;;;16.50;96.70;;;;;;5090692;28;20404;-79
2022/03/21 09:50:56;;;;;;;23.47;19.87;;;16.80;96.00;;;;;;5109695;28;20435;-79
2022/03/21 09:53:22;;;;;;;22.95;20.38;;;17.30;94.40;;;;;;5091353;28;20793;-79
2022/03/21 09:55:48;;;;;;;23.77;20.05;;;17.50;93.40;;;;;;5109041;28;20453;-79
2022/03/21 09:58:14;;;;;;;24.60;20.10;;;17.80;93.10;;;;;;5108910;28;20450;-79
2022/03/21 10:00:43;;;;;;;23.83;20.65;;;17.90;91.90;;;;;;5109190;28;20996;-80
2022/03/21 10:03:10;;;;;;;22.85;20.42;;;18.20;89.50;;;;;;5090827;28;20404;-80
2022/03/21 10:05:38;;;;;;;22.90;20.38;;;18.40;90.40;;;;;;5108627;28;20415;-79
2022/03/21 10:08:24;;;;;;;23.02;19.95;;;18.70;87.60;;;;;;5108974;28;20405;-79
2022/03/21 10:10:53;;;;;;;25.20;20.05;;;18.90;86.30;;;;;;5108918;28;20405;-80
2022/03/21 10:13:20;;;;;;;22.55;20.20;;;19.10;83.60;;;;;;5108516;28;20403;-80
2022/03/21 10:15:47;;;;;;;24.23;20.42;;;19.30;83.50;;;;;;5108999;28;20482;-80
2022/03/21 10:18:12;;;;;;;24.00;20.10;;;19.50;83.00;;;;;;5108772;28;20890;-80
2022/03/21 10:20:39;;;;;;;25.10;20.37;;;19.80;81.40;;;;;;5108461;28;20420;-80
2022/03/21 10:23:15;;;;;;;22.58;20.27;;;19.80;78.90;;;;;;5107929;28;20388;-80
2022/03/21 10:25:41;;;;;;;22.85;20.45;;;19.90;76.20;;;;;;5090611;28;20412;-80
2022/03/21 10:28:06;;;;;;;23.80;20.00;;;20.00;77.60;;;;;;5090645;28;20471;-80
2022/03/21 10:30:32;;;;;;;22.40;20.00;;;20.20;74.70;;;;;;5073872;28;20732;-80
2022/03/21 10:32:59;;;;;;;24.98;20.38;;;20.40;75.20;;;;;;5089904;28;20451;-80
2022/03/21 10:35:28;;;;;;;25.02;21.75;;;20.50;73.00;;;;;;5108789;28;20489;-80
2022/03/21 10:37:58;;;;;;;24.15;21.55;;;20.50;68.60;;;;;;5090184;28;20418;-80
2022/03/21 10:40:33;;;;;;;23.15;20.67;;;20.50;69.10;;;;;;5107939;28;20465;-80
2022/03/21 10:43:04;;;;;;;23.52;21.08;;;20.50;68.60;;;;;;5107379;28;21569;-80
2022/03/21 10:45:41;;;;;;;24.00;21.33;;;20.70;67.10;;;;;;5090094;28;20412;-80
2022/03/21 10:48:16;;;;;;;24.88;21.23;;;20.80;67.30;;;;;;5089500;28;20419;-80
2022/03/21 10:50:50;;;;;;;23.67;21.00;;;20.80;65.80;;;;;;5089634;28;20396;-80
2022/03/21 10:53:17;;;;;;;26.15;23.00;;;20.90;64.10;;;;;;5109752;28;20448;-80
2022/03/21 10:56:07;;;;;;;24.58;22.00;;;20.80;63.20;;;;;;5128971;27;20421;-80
2022/03/21 10:58:44;;;;;;;25.27;22.23;;;20.80;63.70;;;;;;5127664;28;20414;-80
2022/03/21 11:01:16;;;;;;;24.45;21.90;;;21.00;63.30;;;;;;5128443;28;20449;-80
2022/03/21 11:03:56;;;;;;;27.38;23.05;;;21.20;63.30;;;;;;5128509;28;20391;-80
2022/03/21 11:06:22;;;;;;;25.23;22.63;;;21.30;61.50;;;;;;5110119;28;20410;-80
2022/03/21 11:08:54;;;;;;;26.45;23.55;;;21.40;61.30;;;;;;5128874;28;20809;-80
2022/03/21 11:11:20;;;;;;;25.23;22.67;;;21.50;61.70;;;;;;5110312;28;20495;-80
2022/03/21 11:13:47;;;;;;;26.05;22.35;;;21.40;61.00;;;;;;5128828;28;20440;-80
2022/03/21 11:16:17;;;;;;;25.00;22.40;;;21.50;58.20;;;;;;5128015;28;20437;-80
2022/03/21 11:18:45;;;;;;;22.20;19.88;;;21.50;61.30;;;;;;5128983;28;20394;-79
2022/03/21 11:21:13;;;;;;;23.30;20.30;;;21.70;62.00;;;;;;5094005;28;20430;-80
2022/03/21 11:23:40;;;;;;;23.05;20.63;;;21.80;62.00;;;;;;5128638;28;20477;-80
2022/03/21 11:26:31;;;;;;;25.42;21.98;;;21.90;61.50;;;;;;5127913;28;20416;-80
2022/03/21 11:29:07;;;;;;;25.63;22.92;;;21.90;59.60;;;;;;5128415;28;20774;-80
2022/03/21 11:32:03;;;;;;;22.27;19.97;;;22.00;59.10;;;;;;5127622;28;20418;-80
2022/03/21 11:34:51;;;;;;;23.77;21.40;;;22.10;60.60;;;;;;5130909;27;20476;-80
2022/03/21 11:37:29;;;;;;;25.10;22.50;;;22.20;57.80;;;;;;5131097;27;20418;-80
2022/03/21 11:40:26;;;;;;;26.10;23.40;;;22.00;58.80;;;;;;5131657;27;20410;-80
2022/03/21 11:42:53;;;;;;;23.27;20.85;;;22.00;55.60;;;;;;5132583;27;20443;-80
2022/03/21 11:45:32;;;;;;;25.13;22.70;;;21.90;56.50;;;;;;5097565;27;20418;-80
2022/03/21 11:48:32;;;;;;;25.27;22.63;;;21.90;53.60;;;;;;5131533;27;20908;-80
2022/03/21 11:51:01;;;;;;;23.17;20.73;;;22.00;56.10;;;;;;5112934;27;20406;-79
2022/03/21 11:53:28;;;;;;;23.42;21.02;;;21.90;54.40;;;;;;5111608;28;20423;-80
2022/03/21 11:55:54;;;;;;;23.15;20.80;;;21.90;54.40;;;;;;5111328;28;20400;-80
2022/03/21 11:58:23;;;;;;;23.80;21.30;;;22.00;55.60;;;;;;5093145;28;20416;-80
2022/03/21 12:01:05;;;;;;;23.60;21.10;;;22.10;54.60;;;;;;5110772;28;20508;-79
2022/03/21 12:03:31;;;;;;;24.33;21.27;;;22.20;53.10;;;;;;5093010;28;20413;-79
2022/03/21 12:05:57;;;;;;;26.23;21.23;;;22.30;53.80;;;;;;5093069;28;20413;-80
2022/03/21 12:08:37;;;;;;;23.20;20.80;;;22.20;55.30;;;;;;5092893;28;20399;-80
2022/03/21 12:11:03;;;;;;;23.65;21.20;;;22.20;54.30;;;;;;5092690;28;20511;-80
2022/03/21 12:13:41;;;;;;;23.35;20.85;;;22.30;54.20;;;;;;5111045;28;20475;-79
2022/03/21 12:16:18;;;;;;;25.00;20.67;;;22.40;56.00;;;;;;5092635;28;20520;-79
2022/03/21 12:19:03;;;;;;;23.83;21.23;;;22.50;55.60;;;;;;5092461;28;20416;-79
2022/03/21 12:21:29;;;;;;;24.77;21.50;;;22.40;55.60;;;;;;5092541;28;20443;-80
2022/03/21 12:24:11;;;;;;;24.02;21.42;;;22.40;56.60;;;;;;5092276;28;20404;-80
2022/03/21 12:26:37;;;;;;;23.38;20.60;;;22.40;54.70;;;;;;5110986;27;20849;-79
2022/03/21 12:29:34;;;;;;;23.70;20.73;;;22.20;54.30;;;;;;5110581;28;20400;-79
2022/03/21 12:32:27;;;;;;;25.95;20.98;;;22.10;55.40;;;;;;5091975;28;20445;-79
2022/03/21 12:34:54;;;;;;;26.92;21.35;;;22.20;55.50;;;;;;5105366;28;20413;-79
2022/03/21 12:37:32;;;;;;;24.95;20.90;;;22.30;54.10;;;;;;5109508;28;20423;-79
2022/03/21 12:40:00;;;;;;;26.38;21.40;;;22.30;53.20;;;;;;5091267;28;20759;-79
2022/03/21 12:42:28;;;;;;;24.63;22.02;;;22.30;54.20;;;;;;5109914;28;21044;-79
2022/03/21 12:44:54;;;;;;;24.92;20.98;;;22.10;55.50;;;;;;5109273;28;21204;-79
2022/03/21 12:47:21;;;;;;;24.27;21.63;;;21.70;54.90;;;;;;5109086;28;20506;-80
2022/03/21 12:49:51;;;;;;;24.13;21.55;;;21.50;55.00;;;;;;5109437;28;20407;-80
2022/03/21 12:52:31;;;;;;;24.70;21.25;;;21.50;55.70;;;;;;5109217;28;20888;-81
2022/03/21 12:54:58;;;;;;;23.92;21.38;;;21.80;55.50;;;;;;5090925;28;20405;-80
2022/03/21 12:57:24;;;;;;;23.50;20.95;;;22.10;55.70;;;;;;5091208;28;20490;-79